createdAt,value
2023-04-28T00:00:23.796Z,548.00
2023-04-28T00:01:23.809Z,550.00
2023-04-28T00:02:23.878Z,551.00
2023-04-28T00:03:23.981Z,553.00
2023-04-28T00:04:24.305Z,550.00
2023-04-28T00:05:23.961Z,551.00
2023-04-28T00:06:23.903Z,551.00
2023-04-28T00:07:23.912Z,551.00
2023-04-28T00:08:23.931Z,550.00
2023-04-28T00:09:23.953Z,550.00
2023-04-28T00:10:23.980Z,552.00
2023-04-28T00:11:24.005Z,555.00
2023-04-28T00:12:24.022Z,555.00
2023-04-28T00:13:24.128Z,557.00
2023-04-28T00:14:24.081Z,558.00
2023-04-28T00:15:24.114Z,556.00
2023-04-28T00:16:24.160Z,555.00
2023-04-28T00:17:24.189Z,557.00
2023-04-28T00:18:24.207Z,556.00
2023-04-28T00:19:24.155Z,555.00
2023-04-28T00:20:24.214Z,555.00
2023-04-28T00:21:24.212Z,555.00
2023-04-28T00:22:24.259Z,555.00
2023-04-28T00:23:24.242Z,555.00
2023-04-28T00:24:24.268Z,556.00
2023-04-28T00:25:24.317Z,558.00
2023-04-28T00:26:24.318Z,560.00
2023-04-28T00:27:24.364Z,558.00
2023-04-28T00:29:24.379Z,555.00
2023-04-28T00:30:24.323Z,555.00
2023-04-28T00:31:24.396Z,553.00
2023-04-28T00:32:24.325Z,552.00
2023-04-28T00:33:24.294Z,552.00
2023-04-28T00:34:24.287Z,555.00
2023-04-28T00:35:24.282Z,554.00
2023-04-28T00:36:24.249Z,555.00
2023-04-28T00:37:24.262Z,553.00
2023-04-28T00:38:24.227Z,553.00
2023-04-28T00:39:24.223Z,552.00
2023-04-28T00:40:24.194Z,554.00
2023-04-28T00:41:24.171Z,556.00
2023-04-28T00:42:24.179Z,555.00
2023-04-28T00:43:24.132Z,555.00
2023-04-28T00:44:24.129Z,555.00
2023-04-28T00:45:24.111Z,555.00
2023-04-28T00:46:24.130Z,554.00
2023-04-28T00:47:24.171Z,556.00
2023-04-28T00:48:24.079Z,554.00
2023-04-28T00:49:24.039Z,554.00
2023-04-28T00:50:24.017Z,555.00
2023-04-28T00:51:24.008Z,556.00
2023-04-28T00:52:23.986Z,553.00
2023-04-28T00:53:23.960Z,549.00
2023-04-28T00:54:23.949Z,547.00
2023-04-28T00:55:23.942Z,544.00
2023-04-28T00:56:23.926Z,544.00
2023-04-28T00:57:23.910Z,544.00
2023-04-28T00:58:23.864Z,546.00
2023-04-28T00:59:23.855Z,544.00
2023-04-28T01:00:23.881Z,543.00
2023-04-28T01:01:23.863Z,541.00
2023-04-28T01:02:23.927Z,542.00
2023-04-28T01:03:23.893Z,543.00
2023-04-28T01:04:23.792Z,546.00
2023-04-28T01:05:23.749Z,545.00
2023-04-28T01:06:23.721Z,545.00
2023-04-28T01:07:23.709Z,546.00
2023-04-28T01:08:23.708Z,545.00
2023-04-28T01:09:23.715Z,547.00
2023-04-28T01:10:23.666Z,545.00
2023-04-28T01:11:23.671Z,546.00
2023-04-28T01:12:23.643Z,542.00
2023-04-28T01:13:23.648Z,541.00
2023-04-28T01:14:23.674Z,544.00
2023-04-28T01:15:23.622Z,548.00
2023-04-28T01:16:23.579Z,549.00
2023-04-28T01:17:23.557Z,548.00
2023-04-28T01:18:23.552Z,546.00
2023-04-28T01:19:23.650Z,547.00
2023-04-28T01:20:23.589Z,549.00
2023-04-28T01:21:23.531Z,547.00
2023-04-28T01:22:23.532Z,547.00
2023-04-28T01:23:23.611Z,546.00
2023-04-28T01:24:23.564Z,547.00
2023-04-28T01:25:23.535Z,546.00
2023-04-28T01:26:23.499Z,547.00
2023-04-28T01:27:23.519Z,548.00
2023-04-28T01:28:23.493Z,545.00
2023-04-28T01:29:23.491Z,545.00
2023-04-28T01:30:23.477Z,545.00
2023-04-28T01:31:23.523Z,544.00
2023-04-28T01:32:23.477Z,544.00
2023-04-28T01:33:23.481Z,545.00
2023-04-28T01:34:23.490Z,548.00
2023-04-28T01:35:23.509Z,550.00
2023-04-28T01:36:23.568Z,551.00
2023-04-28T01:37:23.585Z,548.00
2023-04-28T01:38:23.601Z,548.00
2023-04-28T01:39:23.627Z,549.00
2023-04-28T01:40:23.660Z,550.00
2023-04-28T01:41:23.695Z,549.00
2023-04-28T01:42:23.714Z,546.00
2023-04-28T01:43:23.764Z,548.00
2023-04-28T01:44:23.770Z,548.00
2023-04-28T01:45:23.817Z,547.00
2023-04-28T01:46:23.882Z,548.00
2023-04-28T01:47:23.916Z,550.00
2023-04-28T01:48:23.927Z,551.00
2023-04-28T01:49:23.940Z,549.00
2023-04-28T01:50:23.978Z,547.00
2023-04-28T01:51:24.001Z,546.00
2023-04-28T01:52:24.022Z,545.00
2023-04-28T01:53:24.056Z,544.00
2023-04-28T01:54:24.089Z,547.00
2023-04-28T01:55:24.166Z,547.00
2023-04-28T01:56:24.170Z,547.00
2023-04-28T01:57:24.197Z,546.00
2023-04-28T01:58:24.248Z,546.00
2023-04-28T01:59:24.286Z,548.00
2023-04-28T02:00:24.301Z,546.00
2023-04-28T02:01:24.324Z,545.00
2023-04-28T02:02:24.451Z,544.00
2023-04-28T02:03:24.485Z,545.00
2023-04-28T02:04:24.558Z,542.00
2023-04-28T02:05:24.454Z,540.00
2023-04-28T02:06:24.465Z,538.00
2023-04-28T02:07:24.514Z,539.00
2023-04-28T02:08:24.548Z,539.00
2023-04-28T02:09:24.559Z,540.00
2023-04-28T02:10:24.602Z,539.00
2023-04-28T02:11:24.649Z,542.00
2023-04-28T02:12:24.668Z,543.00
2023-04-28T02:13:24.671Z,543.00
2023-04-28T02:14:24.724Z,544.00
2023-04-28T02:15:24.740Z,547.00
2023-04-28T02:16:24.796Z,549.00
2023-04-28T02:17:24.840Z,550.00
2023-04-28T02:18:24.816Z,550.00
2023-04-28T02:19:24.843Z,548.00
2023-04-28T02:20:24.862Z,548.00
2023-04-28T02:21:24.926Z,548.00
2023-04-28T02:22:24.924Z,549.00
2023-04-28T02:23:24.951Z,548.00
2023-04-28T02:24:25.002Z,546.00
2023-04-28T02:25:25.015Z,545.00
2023-04-28T02:26:25.041Z,546.00
2023-04-28T02:27:25.086Z,547.00
2023-04-28T02:28:25.103Z,546.00
2023-04-28T02:29:25.149Z,546.00
2023-04-28T02:30:25.166Z,547.00
2023-04-28T02:31:25.232Z,546.00
2023-04-28T02:32:25.273Z,545.00
2023-04-28T02:33:25.265Z,543.00
2023-04-28T02:34:25.286Z,543.00
2023-04-28T02:35:25.305Z,543.00
2023-04-28T02:36:25.440Z,540.00
2023-04-28T02:37:25.312Z,541.00
2023-04-28T02:38:25.241Z,542.00
2023-04-28T02:39:25.233Z,543.00
2023-04-28T02:40:25.213Z,542.00
2023-04-28T02:41:25.278Z,542.00
2023-04-28T02:42:25.172Z,545.00
2023-04-28T02:43:25.151Z,546.00
2023-04-28T02:44:25.157Z,547.00
2023-04-28T02:45:25.138Z,549.00
2023-04-28T02:46:25.170Z,549.00
2023-04-28T02:47:25.089Z,548.00
2023-04-28T02:48:25.080Z,547.00
2023-04-28T02:49:25.063Z,547.00
2023-04-28T02:50:25.090Z,549.00
2023-04-28T02:51:25.119Z,547.00
2023-04-28T02:52:25.161Z,547.00
2023-04-28T02:53:25.194Z,546.00
2023-04-28T02:54:25.209Z,546.00
2023-04-28T02:55:25.262Z,544.00
2023-04-28T02:56:25.259Z,543.00
2023-04-28T02:57:25.271Z,541.00
2023-04-28T02:58:25.437Z,543.00
2023-04-28T02:59:25.333Z,544.00
2023-04-28T03:00:25.372Z,539.00
2023-04-28T03:01:25.443Z,539.00
2023-04-28T03:02:25.576Z,539.00
2023-04-28T03:03:25.630Z,539.00
2023-04-28T03:04:25.701Z,539.00
2023-04-28T03:05:25.522Z,536.00
2023-04-28T03:06:25.557Z,537.00
2023-04-28T03:07:25.579Z,536.00
2023-04-28T03:08:25.621Z,535.00
2023-04-28T03:09:25.629Z,537.00
2023-04-28T03:10:25.656Z,539.00
2023-04-28T03:11:25.716Z,539.00
2023-04-28T03:12:25.703Z,536.00
2023-04-28T03:13:25.740Z,536.00
2023-04-28T03:14:25.761Z,536.00
2023-04-28T03:15:25.792Z,536.00
2023-04-28T03:16:25.851Z,536.00
2023-04-28T03:17:25.870Z,537.00
2023-04-28T03:18:25.867Z,535.00
2023-04-28T03:19:25.884Z,535.00
2023-04-28T03:20:25.916Z,532.00
2023-04-28T03:21:25.955Z,533.00
2023-04-28T03:22:25.986Z,533.00
2023-04-28T03:23:26.021Z,533.00
2023-04-28T03:24:26.039Z,535.00
2023-04-28T03:25:26.057Z,535.00
2023-04-28T03:26:26.101Z,535.00
2023-04-28T03:27:26.106Z,533.00
2023-04-28T03:28:26.128Z,534.00
2023-04-28T03:29:26.164Z,534.00
2023-04-28T03:30:26.194Z,535.00
2023-04-28T03:31:26.248Z,535.00
2023-04-28T03:32:26.263Z,535.00
2023-04-28T03:33:26.245Z,534.00
2023-04-28T03:34:26.275Z,534.00
2023-04-28T03:35:26.307Z,536.00
2023-04-28T03:36:26.314Z,537.00
2023-04-28T03:37:26.281Z,538.00
2023-04-28T03:38:26.311Z,540.00
2023-04-28T03:39:26.249Z,542.00
2023-04-28T03:40:26.243Z,544.00
2023-04-28T03:41:26.255Z,546.00
2023-04-28T03:42:26.223Z,545.00
2023-04-28T03:43:26.219Z,546.00
2023-04-28T03:44:26.186Z,550.00
2023-04-28T03:45:26.196Z,548.00
2023-04-28T03:46:26.235Z,548.00
2023-04-28T03:47:26.168Z,549.00
2023-04-28T03:48:26.166Z,546.00
2023-04-28T03:49:26.129Z,543.00
2023-04-28T03:50:26.689Z,543.00
2023-04-28T03:51:26.142Z,543.00
2023-04-28T03:52:26.163Z,541.00
2023-04-28T03:53:26.175Z,541.00
2023-04-28T03:54:26.405Z,540.00
2023-04-28T03:55:26.421Z,539.00
2023-04-28T03:56:26.252Z,538.00
2023-04-28T03:57:26.278Z,538.00
2023-04-28T03:58:27.005Z,538.00
2023-04-28T03:59:26.391Z,535.00
2023-04-28T04:00:26.348Z,534.00
2023-04-28T04:01:26.370Z,534.00
2023-04-28T04:02:26.529Z,537.00
2023-04-28T04:03:26.789Z,538.00
2023-04-28T04:04:27.041Z,537.00
2023-04-28T04:05:26.586Z,538.00
2023-04-28T04:06:26.490Z,538.00
2023-04-28T04:07:26.496Z,537.00
2023-04-28T04:08:26.531Z,538.00
2023-04-28T04:09:26.573Z,539.00
2023-04-28T04:10:26.569Z,539.00
2023-04-28T04:11:26.608Z,536.00
2023-04-28T04:12:26.662Z,537.00
2023-04-28T04:13:26.646Z,536.00
2023-04-28T04:14:26.678Z,534.00
2023-04-28T04:15:26.725Z,534.00
2023-04-28T04:16:26.898Z,533.00
2023-04-28T04:17:26.764Z,533.00
2023-04-28T04:18:26.776Z,534.00
2023-04-28T04:19:26.822Z,534.00
2023-04-28T04:20:26.835Z,535.00
2023-04-28T04:21:26.856Z,535.00
2023-04-28T04:22:26.869Z,535.00
2023-04-28T04:23:26.896Z,534.00
2023-04-28T04:24:26.905Z,532.00
2023-04-28T04:25:26.924Z,532.00
2023-04-28T04:26:26.964Z,532.00
2023-04-28T04:27:26.975Z,533.00
2023-04-28T04:28:27.024Z,532.00
2023-04-28T04:29:27.028Z,530.00
2023-04-28T04:30:27.057Z,532.00
2023-04-28T04:31:27.099Z,533.00
2023-04-28T04:32:27.182Z,533.00
2023-04-28T04:33:27.145Z,530.00
2023-04-28T04:34:27.167Z,529.00
2023-04-28T04:35:27.198Z,528.00
2023-04-28T04:36:27.231Z,529.00
2023-04-28T04:37:27.250Z,531.00
2023-04-28T04:38:27.279Z,533.00
2023-04-28T04:39:27.300Z,533.00
2023-04-28T04:40:27.334Z,531.00
2023-04-28T04:41:27.355Z,531.00
2023-04-28T04:42:27.389Z,531.00
2023-04-28T04:43:27.413Z,533.00
2023-04-28T04:44:27.381Z,534.00
2023-04-28T04:45:27.362Z,533.00
2023-04-28T04:46:27.391Z,536.00
2023-04-28T04:47:27.361Z,537.00
2023-04-28T04:48:27.300Z,536.00
2023-04-28T04:49:27.279Z,537.00
2023-04-28T04:50:27.271Z,537.00
2023-04-28T04:51:27.256Z,536.00
2023-04-28T04:52:27.235Z,536.00
2023-04-28T04:53:27.210Z,535.00
2023-04-28T04:54:27.194Z,535.00
2023-04-28T04:55:27.178Z,534.00
2023-04-28T04:56:27.188Z,535.00
2023-04-28T04:57:27.141Z,534.00
2023-04-28T04:58:27.142Z,537.00
2023-04-28T04:59:27.097Z,537.00
2023-04-28T05:00:27.079Z,536.00
2023-04-28T05:01:27.155Z,535.00
2023-04-28T05:02:27.060Z,536.00
2023-04-28T05:03:27.105Z,537.00
2023-04-28T05:04:27.126Z,538.00
2023-04-28T05:05:27.034Z,538.00
2023-04-28T05:06:27.027Z,539.00
2023-04-28T05:07:26.973Z,540.00
2023-04-28T05:08:26.991Z,538.00
2023-04-28T05:09:27.023Z,536.00
2023-04-28T05:10:27.060Z,537.00
2023-04-28T05:11:27.079Z,539.00
2023-04-28T05:12:27.109Z,539.00
2023-04-28T05:13:27.111Z,538.00
2023-04-28T05:14:27.151Z,537.00
2023-04-28T05:15:27.187Z,534.00
2023-04-28T05:16:27.225Z,534.00
2023-04-28T05:17:27.239Z,535.00
2023-04-28T05:18:27.315Z,532.00
2023-04-28T05:19:27.284Z,534.00
2023-04-28T05:20:27.331Z,534.00
2023-04-28T05:21:27.345Z,533.00
2023-04-28T05:22:27.477Z,534.00
2023-04-28T05:23:27.356Z,535.00
2023-04-28T05:24:27.380Z,537.00
2023-04-28T05:25:27.412Z,534.00
2023-04-28T05:26:27.488Z,532.00
2023-04-28T05:27:27.482Z,530.00
2023-04-28T05:28:27.485Z,530.00
2023-04-28T05:29:27.530Z,532.00
2023-04-28T05:30:27.650Z,531.00
2023-04-28T05:31:27.613Z,534.00
2023-04-28T05:32:27.911Z,533.00
2023-04-28T05:33:27.804Z,594.00
2023-04-28T05:34:27.648Z,721.00
2023-04-28T05:35:27.668Z,713.00
2023-04-28T05:36:27.675Z,713.00
2023-04-28T05:37:27.693Z,724.00
2023-04-28T05:38:27.703Z,759.00
2023-04-28T05:39:27.699Z,784.00
2023-04-28T05:40:27.742Z,816.00
2023-04-28T05:41:28.033Z,851.00
2023-04-28T05:42:27.714Z,883.00
2023-04-28T05:43:27.724Z,904.00
2023-04-28T05:44:27.714Z,952.00
2023-04-28T05:45:27.703Z,1006.00
2023-04-28T05:46:30.748Z,1015.00
2023-04-28T05:47:27.769Z,1018.00
2023-04-28T05:48:27.708Z,1057.00
2023-04-28T05:49:27.630Z,1074.00
2023-04-28T05:50:27.598Z,1092.00
2023-04-28T05:51:27.623Z,1100.00
2023-04-28T05:52:27.564Z,1105.00
2023-04-28T05:53:27.530Z,1127.00
2023-04-28T05:54:27.589Z,1182.00
2023-04-28T05:55:27.466Z,1212.00
2023-04-28T05:56:27.462Z,1239.00
2023-04-28T05:57:27.445Z,1262.00
2023-04-28T05:58:27.394Z,1275.00
2023-04-28T05:59:27.336Z,1291.00
2023-04-28T06:00:27.330Z,1297.00
2023-04-28T06:01:27.299Z,1327.00
2023-04-28T06:02:28.077Z,1344.00
2023-04-28T06:03:27.350Z,1337.00
2023-04-28T06:04:27.754Z,1335.00
2023-04-28T06:05:27.743Z,1346.00
2023-04-28T06:06:28.216Z,1366.00
2023-04-28T06:07:27.098Z,1374.00
2023-04-28T06:08:27.074Z,1392.00
2023-04-28T06:09:27.079Z,1397.00
2023-04-28T06:10:27.114Z,1418.00
2023-04-28T06:11:26.986Z,1424.00
2023-04-28T06:12:27.150Z,1425.00
2023-04-28T06:13:26.921Z,1423.00
2023-04-28T06:14:26.883Z,1435.00
2023-04-28T06:15:26.859Z,1438.00
2023-04-28T06:16:26.985Z,1441.00
2023-04-28T06:17:26.872Z,1471.00
2023-04-28T06:18:26.759Z,1475.00
2023-04-28T06:19:26.736Z,1486.00
2023-04-28T06:20:26.860Z,1488.00
2023-04-28T06:21:26.822Z,1494.00
2023-04-28T06:22:26.877Z,1502.00
2023-04-28T06:23:26.846Z,1503.00
2023-04-28T06:24:26.893Z,1508.00
2023-04-28T06:25:26.910Z,1511.00
2023-04-28T06:26:26.898Z,1526.00
2023-04-28T06:27:26.907Z,1546.00
2023-04-28T06:28:26.864Z,1558.00
2023-04-28T06:29:26.809Z,1562.00
2023-04-28T06:30:26.770Z,1563.00
2023-04-28T06:31:26.794Z,1558.00
2023-04-28T06:32:27.196Z,1560.00
2023-04-28T06:33:26.659Z,1561.00
2023-04-28T06:34:26.635Z,1563.00
2023-04-28T06:35:26.605Z,1572.00
2023-04-28T06:36:26.556Z,1583.00
2023-04-28T06:37:26.541Z,1592.00
2023-04-28T06:38:26.478Z,1597.00
2023-04-28T06:39:26.480Z,1600.00
2023-04-28T06:40:26.441Z,1595.00
2023-04-28T06:41:26.487Z,1601.00
2023-04-28T06:43:26.351Z,1574.00
2023-04-28T06:44:26.355Z,1503.00
2023-04-28T06:45:26.429Z,1488.00
2023-04-28T06:46:26.302Z,1324.00
2023-04-28T06:47:26.272Z,1290.00
2023-04-28T06:48:26.198Z,1251.00
2023-04-28T06:49:26.228Z,1205.00
2023-04-28T06:50:26.233Z,1173.00
2023-04-28T06:51:26.430Z,1084.00
2023-04-28T06:52:33.467Z,1038.00
2023-04-28T06:53:27.338Z,1014.00
2023-04-28T06:54:26.264Z,965.00
2023-04-28T06:55:26.213Z,946.00
2023-04-28T06:56:26.165Z,934.00
2023-04-28T06:57:26.167Z,934.00
2023-04-28T06:58:26.151Z,935.00
2023-04-28T06:59:26.101Z,925.00
2023-04-28T07:00:26.345Z,919.00
2023-04-28T07:01:26.076Z,913.00
2023-04-28T07:02:26.100Z,904.00
2023-04-28T07:03:26.060Z,896.00
2023-04-28T07:04:25.984Z,887.00
2023-04-28T07:05:25.907Z,878.00
2023-04-28T07:06:25.889Z,877.00
2023-04-28T07:07:25.840Z,870.00
2023-04-28T07:08:25.814Z,860.00
2023-04-28T07:09:25.777Z,852.00
2023-04-28T07:10:25.845Z,847.00
2023-04-28T07:11:25.727Z,843.00
2023-04-28T07:12:25.685Z,837.00
2023-04-28T07:13:26.310Z,831.00
2023-04-28T07:14:25.624Z,827.00
2023-04-28T07:15:25.652Z,822.00
2023-04-28T07:16:25.642Z,819.00
2023-04-28T07:17:25.600Z,815.00
2023-04-28T07:18:25.521Z,812.00
2023-04-28T07:19:25.477Z,808.00
2023-04-28T07:20:25.568Z,804.00
2023-04-28T07:21:25.448Z,803.00
2023-04-28T07:22:25.409Z,799.00
2023-04-28T07:23:25.366Z,798.00
2023-04-28T07:24:25.356Z,795.00
2023-04-28T07:25:25.328Z,793.00
2023-04-28T07:26:25.305Z,792.00
2023-04-28T07:27:25.263Z,791.00
2023-04-28T07:28:25.273Z,786.00
2023-04-28T07:29:25.199Z,784.00
2023-04-28T07:30:27.212Z,782.00
2023-04-28T07:31:25.145Z,780.00
2023-04-28T07:32:25.176Z,778.00
2023-04-28T07:33:25.075Z,773.00
2023-04-28T07:34:25.121Z,777.00
2023-04-28T07:35:25.020Z,880.00
2023-04-28T07:36:24.997Z,881.00
2023-04-28T07:37:24.963Z,893.00
2023-04-28T07:38:24.940Z,941.00
2023-04-28T07:39:25.229Z,965.00
2023-04-28T07:40:24.885Z,1005.00
2023-04-28T07:41:24.842Z,999.00
2023-04-28T07:42:24.798Z,1006.00
2023-04-28T07:43:24.769Z,878.00
2023-04-28T07:44:24.739Z,750.00
2023-04-28T07:45:24.738Z,674.00
2023-04-28T07:46:24.717Z,659.00
2023-04-28T07:47:24.698Z,599.00
2023-04-28T07:48:24.732Z,552.00
2023-04-28T07:49:24.749Z,557.00
2023-04-28T07:50:24.661Z,564.00
2023-04-28T07:51:24.683Z,567.00
2023-04-28T07:52:24.685Z,565.00
2023-04-28T07:53:24.651Z,570.00
2023-04-28T07:54:24.762Z,575.00
2023-04-28T07:55:24.646Z,580.00
2023-04-28T07:56:24.784Z,590.00
2023-04-28T07:57:25.116Z,599.00
2023-04-28T07:58:25.644Z,620.00
2023-04-28T07:59:24.871Z,640.00
2023-04-28T08:00:24.678Z,651.00
2023-04-28T08:01:24.751Z,674.00
2023-04-28T08:02:25.673Z,682.00
2023-04-28T08:03:24.770Z,687.00
2023-04-28T08:04:25.149Z,702.00
2023-04-28T08:05:24.749Z,725.00
2023-04-28T08:06:24.619Z,758.00
2023-04-28T08:07:24.559Z,768.00
2023-04-28T08:08:24.509Z,770.00
2023-04-28T08:09:24.630Z,772.00
2023-04-28T08:10:24.444Z,781.00
2023-04-28T08:11:24.482Z,782.00
2023-04-28T08:12:24.572Z,779.00
2023-04-28T08:13:24.499Z,782.00
2023-04-28T08:14:24.486Z,791.00
2023-04-28T08:15:24.468Z,805.00
2023-04-28T08:16:24.566Z,865.00
2023-04-28T08:17:24.463Z,882.00
2023-04-28T08:18:24.486Z,888.00
2023-04-28T08:19:25.160Z,897.00
2023-04-28T08:20:24.898Z,909.00
2023-04-28T08:21:24.361Z,939.00
2023-04-28T08:22:24.340Z,958.00
2023-04-28T08:23:24.336Z,975.00
2023-04-28T08:24:24.303Z,1004.00
2023-04-28T08:25:24.274Z,1006.00
2023-04-28T08:26:24.318Z,1015.00
2023-04-28T08:27:24.245Z,1027.00
2023-04-28T08:28:24.240Z,1041.00
2023-04-28T08:29:24.279Z,1055.00
2023-04-28T08:30:24.275Z,1067.00
2023-04-28T08:31:24.352Z,1074.00
2023-04-28T08:32:24.385Z,1069.00
2023-04-28T08:33:24.399Z,1051.00
2023-04-28T08:34:24.559Z,781.00
2023-04-28T08:35:24.373Z,792.00
2023-04-28T08:36:24.702Z,812.00
2023-04-28T08:37:24.426Z,824.00
2023-04-28T08:38:24.567Z,835.00
2023-04-28T08:39:24.500Z,850.00
2023-04-28T08:40:24.367Z,886.00
2023-04-28T08:41:24.404Z,918.00
2023-04-28T08:42:24.388Z,1128.00
2023-04-28T08:44:43.082Z,1097.00
2023-04-28T08:45:43.069Z,1117.00
2023-04-28T08:46:43.118Z,1190.00
2023-04-28T08:47:43.140Z,1233.00
2023-04-28T08:48:43.177Z,1283.00
2023-04-28T08:49:43.074Z,1301.00
2023-04-28T08:50:43.043Z,1332.00
2023-04-28T08:51:43.048Z,1336.00
2023-04-28T08:52:43.311Z,1335.00
2023-04-28T08:54:11.807Z,1328.00
2023-04-28T08:54:44.078Z,1324.00
2023-04-28T08:55:43.077Z,1327.00
2023-04-28T08:56:43.085Z,1331.00
2023-04-28T08:57:43.214Z,1332.00
2023-04-28T08:58:43.096Z,1339.00
2023-04-28T08:59:43.159Z,1348.00
2023-04-28T09:00:43.121Z,1344.00
2023-04-28T09:01:43.157Z,1353.00
2023-04-28T09:02:43.376Z,1365.00
2023-04-28T09:03:43.342Z,1384.00
2023-04-28T09:04:43.621Z,1407.00
2023-04-28T09:05:43.479Z,1427.00
2023-04-28T09:06:43.404Z,1429.00
2023-04-28T09:07:43.515Z,1428.00
2023-04-28T09:08:43.580Z,1421.00
2023-04-28T09:09:43.586Z,1433.00
2023-04-28T09:10:43.650Z,1441.00
2023-04-28T09:11:43.754Z,1451.00
2023-04-28T09:12:43.774Z,1459.00
2023-04-28T09:13:43.893Z,1476.00
2023-04-28T09:14:43.867Z,1508.00
2023-04-28T09:15:43.937Z,1517.00
2023-04-28T09:16:44.004Z,1557.00
2023-04-28T09:17:44.050Z,1604.00
2023-04-28T09:18:44.082Z,1608.00
2023-04-28T09:19:44.107Z,1618.00
2023-04-28T09:22:13.761Z,1594.00
2023-04-28T09:23:04.308Z,1598.00
2023-04-28T09:24:03.253Z,1664.00
2023-04-28T09:25:03.269Z,1651.00
2023-04-28T09:26:03.230Z,1651.00
2023-04-28T09:27:03.228Z,1659.00
2023-04-28T09:28:03.256Z,1663.00
2023-04-28T09:29:03.242Z,1668.00
2023-04-28T09:30:03.232Z,1666.00
2023-04-28T09:31:03.245Z,1673.00
2023-04-28T09:32:03.276Z,1681.00
2023-04-28T09:33:03.289Z,1688.00
2023-04-28T09:34:03.365Z,1693.00
2023-04-28T09:35:03.212Z,1699.00
2023-04-28T09:36:03.317Z,1713.00
2023-04-28T09:37:03.212Z,1723.00
2023-04-28T09:38:03.208Z,1724.00
2023-04-28T09:39:04.021Z,1719.00
2023-04-28T09:40:03.180Z,1728.00
2023-04-28T09:41:03.224Z,1757.00
2023-04-28T09:42:03.179Z,1765.00
2023-04-28T09:43:15.140Z,1788.00
2023-04-28T09:44:04.115Z,1783.00
2023-04-28T09:45:03.370Z,1759.00
2023-04-28T09:46:03.268Z,1729.00
2023-04-28T09:47:03.372Z,1716.00
2023-04-28T09:48:03.186Z,1726.00
2023-04-28T09:49:03.054Z,1727.00
2023-04-28T09:50:03.084Z,1720.00
2023-04-28T09:51:03.070Z,1711.00
2023-04-28T09:52:03.031Z,1709.00
2023-04-28T09:53:03.028Z,1703.00
2023-04-28T09:54:03.002Z,1717.00
2023-04-28T09:55:03.034Z,1735.00
2023-04-28T09:56:02.975Z,1751.00
2023-04-28T09:57:03.144Z,1753.00
2023-04-28T09:58:02.945Z,1737.00
2023-04-28T09:59:02.980Z,1716.00
2023-04-28T10:00:02.954Z,1699.00
2023-04-28T10:01:02.961Z,1717.00
2023-04-28T10:02:12.808Z,1727.00
2023-04-28T10:03:04.152Z,1727.00
2023-04-28T10:04:02.990Z,1719.00
2023-04-28T10:05:03.879Z,1703.00
2023-04-28T10:06:02.887Z,1688.00
2023-04-28T10:07:02.901Z,1676.00
2023-04-28T10:08:02.867Z,1673.00
2023-04-28T10:09:03.084Z,1687.00
2023-04-28T10:10:02.828Z,1691.00
2023-04-28T10:11:02.829Z,1690.00
2023-04-28T10:12:02.866Z,1684.00
2023-04-28T10:13:02.800Z,1671.00
2023-04-28T10:14:02.849Z,1653.00
2023-04-28T10:15:02.868Z,1647.00
2023-04-28T10:16:02.936Z,1661.00
2023-04-28T10:17:02.834Z,1682.00
2023-04-28T10:18:02.903Z,1695.00
2023-04-28T10:19:02.928Z,1681.00
2023-04-28T10:20:02.803Z,1671.00
2023-04-28T10:21:02.843Z,1635.00
2023-04-28T10:22:02.781Z,1625.00
2023-04-28T10:23:02.787Z,1623.00
2023-04-28T10:24:02.791Z,1629.00
2023-04-28T10:25:02.763Z,1651.00
2023-04-28T10:26:03.543Z,1653.00
2023-04-28T10:27:02.795Z,1630.00
2023-04-28T10:28:02.820Z,1618.00
2023-04-28T10:29:02.885Z,1631.00
2023-04-28T10:30:03.920Z,1641.00
2023-04-28T10:31:03.019Z,1645.00
2023-04-28T10:32:02.996Z,1648.00
2023-04-28T10:33:03.051Z,1644.00
2023-04-28T10:34:03.035Z,1638.00
2023-04-28T10:35:03.110Z,1628.00
2023-04-28T10:36:03.036Z,1618.00
2023-04-28T10:37:03.028Z,1612.00
2023-04-28T10:38:02.982Z,1596.00
2023-04-28T10:39:02.984Z,1371.00
2023-04-28T10:40:03.150Z,1298.00
2023-04-28T10:41:02.967Z,1264.00
2023-04-28T10:42:02.950Z,1272.00
2023-04-28T10:43:03.032Z,1314.00
2023-04-28T10:44:02.928Z,1318.00
2023-04-28T10:45:02.930Z,1334.00
2023-04-28T10:46:03.020Z,1354.00
2023-04-28T10:47:02.948Z,1359.00
2023-04-28T10:48:03.040Z,1353.00
2023-04-28T10:49:03.010Z,1327.00
2023-04-28T10:50:03.037Z,1266.00
2023-04-28T10:51:03.160Z,1260.00
2023-04-28T10:52:03.577Z,1278.00
2023-04-28T10:53:03.168Z,1295.00
2023-04-28T10:54:03.177Z,1301.00
2023-04-28T10:55:09.506Z,1310.00
2023-04-28T10:56:04.156Z,1330.00
2023-04-28T10:57:03.138Z,1348.00
2023-04-28T10:58:03.137Z,1353.00
2023-04-28T10:59:03.629Z,1369.00
2023-04-28T11:00:03.282Z,1381.00
2023-04-28T11:01:03.088Z,1391.00
2023-04-28T11:02:03.148Z,1395.00
2023-04-28T11:03:03.253Z,1402.00
2023-04-28T11:04:03.556Z,1412.00
2023-04-28T11:05:03.121Z,1418.00
2023-04-28T11:06:03.112Z,1413.00
2023-04-28T11:07:03.118Z,1402.00
2023-04-28T11:08:03.011Z,1398.00
2023-04-28T11:09:03.096Z,1389.00
2023-04-28T11:10:06.388Z,1384.00
2023-04-28T11:11:03.120Z,1384.00
2023-04-28T11:12:03.003Z,1375.00
2023-04-28T11:13:03.093Z,1364.00
2023-04-28T11:14:03.062Z,1352.00
2023-04-28T11:15:02.933Z,1341.00
2023-04-28T11:16:02.959Z,1331.00
2023-04-28T11:17:02.963Z,1318.00
2023-04-28T11:18:02.931Z,1301.00
2023-04-28T11:19:02.896Z,1294.00
2023-04-28T11:20:02.988Z,1289.00
2023-04-28T11:21:03.553Z,1279.00
2023-04-28T11:22:02.833Z,1273.00
2023-04-28T11:23:02.806Z,1261.00
2023-04-28T11:24:02.806Z,1255.00
2023-04-28T11:25:02.810Z,1295.00
2023-04-28T11:26:02.769Z,1267.00
2023-04-28T11:27:02.844Z,1251.00
2023-04-28T11:28:03.000Z,1262.00
2023-04-28T11:29:02.943Z,1263.00
2023-04-28T11:30:02.956Z,1274.00
2023-04-28T11:31:02.945Z,1283.00
2023-04-28T11:32:02.933Z,1293.00
2023-04-28T11:33:02.958Z,1293.00
2023-04-28T11:34:02.944Z,1282.00
2023-04-28T11:35:02.971Z,1267.00
2023-04-28T11:36:03.040Z,1248.00
2023-04-28T11:37:03.019Z,1232.00
2023-04-28T11:38:03.028Z,1217.00
2023-04-28T11:39:03.076Z,1202.00
2023-04-28T11:40:03.082Z,1193.00
2023-04-28T11:41:03.103Z,1195.00
2023-04-28T11:42:03.194Z,1185.00
2023-04-28T11:43:03.177Z,1176.00
2023-04-28T11:44:03.223Z,1169.00
2023-04-28T11:45:03.234Z,1158.00
2023-04-28T11:46:03.335Z,1147.00
2023-04-28T11:47:03.848Z,1140.00
2023-04-28T11:48:03.391Z,1130.00
2023-04-28T11:49:03.396Z,1121.00
2023-04-28T11:50:03.601Z,1113.00
2023-04-28T11:51:03.454Z,1103.00
2023-04-28T11:52:03.501Z,1093.00
2023-04-28T11:53:03.548Z,1083.00
2023-04-28T11:54:03.585Z,1079.00
2023-04-28T11:55:03.615Z,1069.00
2023-04-28T11:56:03.645Z,1057.00
2023-04-28T11:57:03.691Z,1053.00
2023-04-28T11:58:03.748Z,1047.00
2023-04-28T11:59:04.145Z,1040.00
2023-04-28T12:00:03.820Z,1026.00
2023-04-28T12:01:03.845Z,1019.00
2023-04-28T12:02:03.970Z,1013.00
2023-04-28T12:03:03.988Z,1006.00
2023-04-28T12:04:04.094Z,1001.00
2023-04-28T12:05:04.076Z,995.00
2023-04-28T12:06:04.110Z,992.00
2023-04-28T12:07:04.145Z,986.00
2023-04-28T12:08:04.205Z,980.00
2023-04-28T12:09:04.219Z,973.00
2023-04-28T12:10:04.224Z,965.00
2023-04-28T12:11:04.283Z,959.00
2023-04-28T12:12:04.426Z,956.00
2023-04-28T12:13:04.184Z,950.00
2023-04-28T12:14:04.199Z,947.00
2023-04-28T12:15:04.270Z,941.00
2023-04-28T12:16:04.240Z,936.00
2023-04-28T12:17:04.154Z,932.00
2023-04-28T12:18:04.184Z,930.00
2023-04-28T12:19:04.221Z,930.00
2023-04-28T12:20:04.252Z,926.00
2023-04-28T12:21:04.266Z,918.00
2023-04-28T12:22:04.359Z,913.00
2023-04-28T12:23:04.515Z,910.00
2023-04-28T12:24:04.475Z,909.00